createdAt,value
2022-08-29T00:01:35.260Z,79.61
2022-08-29T00:04:37.055Z,79.04
2022-08-29T00:07:38.539Z,79.89
2022-08-29T00:10:41.213Z,78.67
2022-08-29T00:13:42.701Z,81.71
2022-08-29T00:16:44.423Z,82.44
2022-08-29T00:19:45.965Z,79.09
2022-08-29T00:22:48.121Z,82.45
2022-08-29T00:25:49.561Z,82.44
2022-08-29T00:28:51.021Z,80.03
2022-08-29T00:31:52.471Z,82.70
2022-08-29T00:34:53.956Z,81.56
2022-08-29T00:37:55.959Z,84.24
2022-08-29T00:40:58.544Z,82.54
2022-08-29T00:44:00.066Z,80.97
2022-08-29T00:47:08.785Z,80.38
2022-08-29T00:50:25.487Z,82.27
2022-08-29T00:53:48.304Z,82.85
2022-08-29T00:56:50.961Z,83.63
2022-08-29T00:59:52.826Z,83.15
2022-08-29T01:02:54.346Z,83.46
2022-08-29T01:05:55.958Z,84.27
2022-08-29T01:08:58.330Z,84.82
2022-08-29T01:12:17.983Z,84.88
2022-08-29T01:15:19.405Z,83.86
2022-08-29T01:18:22.885Z,85.93
2022-08-29T01:21:42.640Z,86.21
2022-08-29T01:24:50.844Z,84.60
2022-08-29T01:28:03.113Z,87.34
2022-08-29T01:31:09.587Z,84.82
2022-08-29T01:34:12.263Z,84.02
2022-08-29T01:37:16.130Z,84.45
2022-08-29T01:40:17.576Z,86.04
2022-08-29T01:43:19.196Z,86.73
2022-08-29T01:46:24.001Z,86.22
2022-08-29T01:49:26.005Z,86.14
2022-08-29T01:52:27.948Z,85.82
2022-08-29T01:55:29.373Z,86.20
2022-08-29T01:58:30.772Z,85.92
2022-08-29T02:01:39.858Z,87.83
2022-08-29T02:04:41.305Z,87.71
2022-08-29T02:07:42.742Z,87.00
2022-08-29T02:10:44.150Z,86.13
2022-08-29T02:13:49.269Z,85.06
2022-08-29T02:16:51.107Z,85.73
2022-08-29T02:19:52.557Z,87.16
2022-08-29T02:22:53.968Z,86.46
2022-08-29T02:25:55.412Z,87.21
2022-08-29T02:28:57.393Z,86.17
2022-08-29T02:31:58.911Z,84.78
2022-08-29T02:35:00.357Z,84.59
2022-08-29T02:38:02.847Z,85.95
2022-08-29T02:41:04.306Z,87.06
2022-08-29T02:44:05.836Z,86.85
2022-08-29T02:47:09.249Z,87.57
2022-08-29T02:50:11.749Z,87.47
2022-08-29T02:53:15.091Z,87.42
2022-08-29T02:56:17.354Z,86.80
2022-08-29T02:59:18.766Z,88.05
2022-08-29T03:02:20.274Z,87.78
2022-08-29T03:05:27.433Z,87.86
2022-08-29T03:08:29.368Z,88.53
2022-08-29T03:11:31.027Z,88.88
2022-08-29T03:14:32.469Z,89.16
2022-08-29T03:17:34.452Z,89.16
2022-08-29T03:20:37.426Z,89.60
2022-08-29T03:23:38.885Z,90.13
2022-08-29T03:26:40.360Z,89.14
2022-08-29T03:29:41.988Z,89.08
2022-08-29T03:32:43.997Z,89.42
2022-08-29T03:35:45.421Z,87.96
2022-08-29T03:38:48.290Z,86.97
2022-08-29T03:41:49.762Z,86.97
2022-08-29T03:44:51.175Z,86.30
2022-08-29T03:47:52.877Z,85.99
2022-08-29T03:50:56.566Z,86.28
2022-08-29T03:53:58.253Z,85.76
2022-08-29T03:56:59.721Z,85.31
2022-08-29T04:00:10.348Z,82.91
2022-08-29T04:03:13.071Z,83.00
2022-08-29T04:06:14.528Z,82.25
2022-08-29T04:09:15.957Z,83.37
2022-08-29T04:12:17.428Z,84.14
2022-08-29T04:15:19.133Z,85.30
2022-08-29T04:18:21.609Z,86.50
2022-08-29T04:21:25.720Z,86.52
2022-08-29T04:24:31.052Z,86.43
2022-08-29T04:27:33.020Z,85.77
2022-08-29T04:30:35.704Z,84.92
2022-08-29T04:33:37.118Z,84.16
2022-08-29T04:36:41.736Z,84.29
2022-08-29T04:39:43.290Z,85.05
2022-08-29T04:42:47.041Z,85.29
2022-08-29T04:45:55.328Z,84.00
2022-08-29T04:48:59.508Z,83.60
2022-08-29T04:52:04.843Z,83.93
2022-08-29T04:55:07.750Z,82.76
2022-08-29T04:58:10.084Z,83.90
2022-08-29T05:01:14.010Z,85.06
2022-08-29T05:04:15.849Z,85.25
2022-08-29T05:07:17.263Z,84.89
2022-08-29T05:10:20.941Z,83.95
2022-08-29T05:13:22.862Z,83.59
2022-08-29T05:16:24.362Z,82.66
2022-08-29T05:19:25.821Z,82.08
2022-08-29T05:22:27.269Z,81.21
2022-08-29T05:25:28.763Z,80.44
2022-08-29T05:28:34.930Z,77.85
2022-08-29T05:31:38.583Z,76.03
2022-08-29T05:34:41.710Z,74.29
2022-08-29T05:37:43.121Z,72.84
2022-08-29T05:40:44.619Z,71.56
2022-08-29T05:43:46.557Z,69.41
2022-08-29T05:46:48.644Z,70.74
2022-08-29T05:49:50.112Z,70.29
2022-08-29T05:52:51.529Z,70.12
2022-08-29T05:55:54.018Z,69.43
2022-08-29T05:58:55.928Z,69.53
2022-08-29T06:01:57.476Z,69.93
2022-08-29T06:04:59.079Z,68.29
2022-08-29T06:08:01.158Z,69.05
2022-08-29T06:11:02.592Z,69.30
2022-08-29T06:14:04.809Z,69.15
2022-08-29T06:17:08.001Z,68.02
2022-08-29T06:20:11.600Z,67.67
2022-08-29T06:23:14.152Z,67.96
2022-08-29T06:26:16.973Z,67.23
2022-08-29T06:29:18.513Z,66.67
2022-08-29T06:32:19.934Z,66.67
2022-08-29T06:35:21.504Z,65.35
2022-08-29T06:38:23.038Z,65.38
2022-08-29T06:41:25.433Z,64.19
2022-08-29T06:44:30.669Z,66.10
2022-08-29T06:47:32.451Z,65.71
2022-08-29T06:50:43.577Z,66.03
2022-08-29T06:53:47.314Z,65.38
2022-08-29T06:56:50.643Z,64.57
2022-08-29T06:59:52.045Z,63.79
2022-08-29T07:02:54.103Z,64.01
2022-08-29T07:05:55.582Z,63.86
2022-08-29T07:08:58.432Z,63.68
2022-08-29T07:12:00.159Z,62.45
2022-08-29T07:15:02.114Z,62.89
2022-08-29T07:18:03.803Z,62.57
2022-08-29T07:21:09.706Z,62.49
2022-08-29T07:24:11.177Z,63.01
2022-08-29T07:27:13.912Z,63.07
2022-08-29T07:30:16.437Z,62.47
2022-08-29T07:33:17.863Z,61.67
2022-08-29T07:36:19.399Z,60.95
2022-08-29T07:39:22.063Z,60.97
2022-08-29T07:42:23.529Z,60.83
2022-08-29T07:45:25.047Z,60.14
2022-08-29T07:48:26.596Z,59.55
2022-08-29T07:51:28.481Z,58.98
2022-08-29T07:54:29.909Z,58.75
2022-08-29T07:57:31.824Z,58.42
2022-08-29T08:00:34.109Z,58.97
2022-08-29T08:03:35.744Z,57.64
2022-08-29T08:06:40.905Z,57.95
2022-08-29T08:09:44.222Z,57.33
2022-08-29T08:12:47.417Z,56.07
2022-08-29T08:15:48.873Z,56.96
2022-08-29T08:18:50.542Z,56.12
2022-08-29T08:21:51.994Z,56.26
2022-08-29T08:24:53.446Z,57.03
2022-08-29T08:27:55.029Z,57.92
2022-08-29T08:31:03.566Z,56.76
2022-08-29T08:34:07.318Z,56.98
2022-08-29T08:37:09.032Z,54.86
2022-08-29T08:40:21.216Z,54.86
2022-08-29T08:43:38.267Z,54.17
2022-08-29T08:46:47.404Z,53.25
2022-08-29T08:49:58.096Z,52.57
2022-08-29T08:53:12.727Z,52.53
2022-08-29T08:56:35.617Z,53.20
2022-08-29T08:59:43.326Z,53.06
2022-08-29T09:03:05.423Z,55.30
2022-08-29T09:06:19.906Z,55.12
2022-08-29T09:09:47.799Z,53.36
2022-08-29T09:13:07.602Z,52.49
2022-08-29T09:16:25.398Z,52.03
2022-08-29T09:19:26.862Z,53.37
2022-08-29T09:22:33.182Z,52.23
2022-08-29T09:25:36.275Z,53.69
2022-08-29T09:28:37.802Z,51.81
2022-08-29T09:31:40.924Z,51.83
2022-08-29T09:35:07.843Z,52.18
2022-08-29T09:38:29.752Z,52.76
2022-08-29T09:41:31.170Z,52.03
2022-08-29T09:44:35.401Z,51.60
2022-08-29T09:47:37.140Z,50.87
2022-08-29T09:50:38.548Z,50.98
2022-08-29T09:53:40.332Z,50.93
2022-08-29T09:56:55.194Z,51.80
2022-08-29T10:00:13.667Z,50.31
2022-08-29T10:03:22.248Z,49.51
2022-08-29T10:06:32.169Z,49.80
2022-08-29T10:09:33.602Z,49.76
2022-08-29T10:12:57.260Z,49.67
2022-08-29T10:16:22.807Z,48.85
2022-08-29T10:19:34.333Z,48.44
2022-08-29T10:23:02.967Z,48.80
2022-08-29T10:26:55.793Z,48.23
2022-08-29T10:30:24.134Z,47.70
2022-08-29T10:33:36.344Z,48.45
2022-08-29T10:36:41.633Z,47.54
2022-08-29T10:39:58.279Z,47.35
2022-08-29T10:43:12.190Z,46.74
2022-08-29T10:46:26.474Z,46.14
2022-08-29T10:49:51.862Z,46.87
2022-08-29T10:53:17.463Z,45.41
2022-08-29T10:56:33.053Z,44.61
2022-08-29T11:00:07.003Z,44.59
2022-08-29T11:03:23.035Z,43.99
2022-08-29T11:06:33.017Z,43.61
2022-08-29T11:09:47.085Z,43.60
2022-08-29T11:13:18.073Z,43.63
2022-08-29T11:16:25.691Z,43.30
2022-08-29T11:19:39.791Z,42.87
2022-08-29T11:22:52.056Z,41.91
2022-08-29T11:25:53.806Z,42.60
2022-08-29T11:29:04.745Z,41.95
2022-08-29T11:32:27.274Z,41.09
2022-08-29T11:36:07.745Z,42.27
2022-08-29T11:39:41.018Z,41.91
2022-08-29T11:42:52.693Z,40.37
2022-08-29T11:45:59.401Z,41.26
2022-08-29T11:49:25.429Z,40.90
2022-08-29T11:52:28.997Z,40.22
2022-08-29T11:55:40.692Z,39.23
2022-08-29T11:58:46.622Z,39.56
2022-08-29T12:01:58.127Z,40.45
2022-08-29T12:05:14.455Z,38.77
2022-08-29T12:08:37.395Z,39.38
2022-08-29T12:12:12.621Z,39.08
2022-08-29T12:15:34.272Z,37.26
2022-08-29T12:18:43.056Z,38.44
2022-08-29T12:21:47.045Z,38.89
2022-08-29T12:24:57.890Z,38.17
2022-08-29T12:28:17.748Z,37.51
2022-08-29T12:31:37.078Z,37.25
2022-08-29T12:35:02.621Z,37.85
2022-08-29T12:38:24.496Z,37.62
2022-08-29T12:41:38.329Z,37.88
2022-08-29T12:44:57.478Z,37.47
2022-08-29T12:48:05.212Z,36.97
2022-08-29T12:51:06.762Z,36.64
2022-08-29T12:54:11.386Z,37.09
2022-08-29T12:57:26.035Z,37.64
2022-08-29T13:00:30.959Z,37.33
2022-08-29T13:03:33.352Z,36.09
2022-08-29T13:06:34.858Z,36.33
2022-08-29T13:09:49.419Z,35.85
2022-08-29T13:12:50.979Z,37.02
2022-08-29T13:16:00.342Z,37.44
2022-08-29T13:19:11.338Z,37.96
2022-08-29T13:22:14.182Z,36.70
2022-08-29T13:25:17.347Z,36.68
2022-08-29T13:28:27.742Z,36.82
2022-08-29T13:31:36.155Z,36.65
2022-08-29T13:34:37.792Z,35.61
2022-08-29T13:37:41.497Z,35.85
2022-08-29T13:40:46.754Z,36.70
2022-08-29T13:43:48.742Z,35.77
2022-08-29T13:46:52.474Z,35.40
2022-08-29T13:49:59.467Z,36.05
2022-08-29T13:53:00.965Z,36.10
2022-08-29T13:56:03.365Z,34.78
2022-08-29T13:59:06.280Z,34.63
2022-08-29T14:02:09.872Z,34.65
2022-08-29T14:05:13.674Z,34.73
2022-08-29T14:08:15.342Z,35.30
2022-08-29T14:11:17.704Z,34.38
2022-08-29T14:14:19.148Z,34.63
2022-08-29T14:17:22.804Z,33.81
2022-08-29T14:20:25.571Z,32.83
2022-08-29T14:23:27.011Z,33.73
2022-08-29T14:26:28.426Z,32.85
2022-08-29T14:29:31.074Z,32.78
2022-08-29T14:32:32.657Z,33.59
2022-08-29T14:35:34.868Z,32.79
2022-08-29T14:38:36.420Z,32.89
2022-08-29T14:41:37.978Z,32.73
2022-08-29T14:44:39.428Z,32.72
2022-08-29T14:47:41.072Z,32.27
2022-08-29T14:50:42.484Z,34.08
2022-08-29T14:53:51.357Z,35.00
2022-08-29T14:56:55.905Z,35.55
2022-08-29T14:59:57.411Z,34.73
2022-08-29T15:02:59.955Z,34.07
2022-08-29T15:06:02.590Z,33.94
2022-08-29T15:09:04.867Z,33.50
2022-08-29T15:12:06.562Z,33.79
2022-08-29T15:15:08.445Z,33.98
2022-08-29T15:18:23.490Z,34.95
2022-08-29T15:21:32.378Z,34.89
2022-08-29T15:24:33.952Z,34.57
2022-08-29T15:27:35.389Z,34.72
2022-08-29T15:30:36.895Z,35.18
2022-08-29T15:33:39.435Z,35.52
2022-08-29T15:36:40.837Z,35.62
2022-08-29T15:39:42.729Z,35.01
2022-08-29T15:42:45.181Z,34.86
2022-08-29T15:45:46.626Z,34.55
2022-08-29T15:48:48.044Z,35.09
2022-08-29T15:51:52.840Z,34.97
2022-08-29T15:54:54.825Z,35.48
2022-08-29T15:57:56.521Z,35.83
2022-08-29T16:00:58.549Z,36.22
2022-08-29T16:04:00.021Z,35.83
2022-08-29T16:07:01.491Z,35.52
2022-08-29T16:10:10.392Z,35.57
2022-08-29T16:13:13.229Z,34.35
2022-08-29T16:16:15.345Z,33.75
2022-08-29T16:19:18.605Z,34.28
2022-08-29T16:22:20.065Z,34.37
2022-08-29T16:25:22.425Z,34.15
2022-08-29T16:28:23.845Z,33.60
2022-08-29T16:31:25.432Z,34.80
2022-08-29T16:34:28.113Z,35.19
2022-08-29T16:37:29.653Z,35.20
2022-08-29T16:40:32.206Z,34.90
2022-08-29T16:43:35.086Z,35.26
2022-08-29T16:46:36.581Z,35.89
2022-08-29T16:49:38.197Z,35.50
2022-08-29T16:52:39.868Z,35.76
2022-08-29T16:55:41.418Z,35.88
2022-08-29T16:58:59.979Z,36.44
2022-08-29T17:02:02.092Z,36.58
2022-08-29T17:05:04.765Z,36.56
2022-08-29T17:08:06.145Z,37.17
2022-08-29T17:11:07.715Z,36.53
2022-08-29T17:14:10.326Z,37.10
2022-08-29T17:17:11.873Z,37.48
2022-08-29T17:20:14.867Z,37.44
2022-08-29T17:23:16.395Z,37.54
2022-08-29T17:26:18.281Z,37.66
2022-08-29T17:29:20.036Z,38.23
2022-08-29T17:32:21.502Z,37.68
2022-08-29T17:35:23.004Z,35.90
2022-08-29T17:38:26.223Z,36.34
2022-08-29T17:41:27.774Z,35.83
2022-08-29T17:44:35.073Z,36.69
2022-08-29T17:47:36.552Z,36.54
2022-08-29T17:50:39.015Z,37.71
2022-08-29T17:53:40.554Z,38.26
2022-08-29T17:56:45.904Z,38.79
2022-08-29T17:59:47.314Z,39.19
2022-08-29T18:02:48.839Z,39.25
2022-08-29T18:05:50.363Z,40.43
2022-08-29T18:08:51.790Z,41.25
2022-08-29T18:11:54.445Z,42.05
2022-08-29T18:14:55.953Z,42.08
2022-08-29T18:17:57.526Z,43.32
2022-08-29T18:20:58.950Z,44.44
2022-08-29T18:24:01.308Z,45.11
2022-08-29T18:27:02.743Z,45.23
2022-08-29T18:30:06.839Z,44.18
2022-08-29T18:33:08.730Z,42.39
2022-08-29T18:36:10.393Z,42.29
2022-08-29T18:39:14.218Z,42.65
2022-08-29T18:42:36.813Z,42.57
2022-08-29T18:45:38.452Z,42.49
2022-08-29T18:48:41.152Z,42.34
2022-08-29T18:51:43.570Z,42.21
2022-08-29T18:54:45.117Z,42.23
2022-08-29T18:57:48.080Z,42.45
2022-08-29T19:00:50.183Z,41.47
2022-08-29T19:03:59.100Z,40.75
2022-08-29T19:07:00.518Z,40.14
2022-08-29T19:10:02.093Z,39.73
2022-08-29T19:13:08.024Z,38.63
2022-08-29T19:16:09.853Z,38.33
2022-08-29T19:19:13.163Z,38.18
2022-08-29T19:22:15.905Z,38.22
2022-08-29T19:25:17.428Z,38.10
2022-08-29T19:28:19.781Z,37.99
2022-08-29T19:31:22.685Z,37.75
2022-08-29T19:34:24.172Z,38.17
2022-08-29T19:37:26.415Z,37.74
2022-08-29T19:40:28.442Z,37.50
2022-08-29T19:43:33.120Z,37.51
2022-08-29T19:46:35.971Z,37.12
2022-08-29T19:49:40.997Z,37.25
2022-08-29T19:52:45.807Z,37.32
2022-08-29T19:55:47.300Z,36.77
2022-08-29T19:58:49.436Z,36.46
2022-08-29T20:01:51.143Z,35.92
2022-08-29T20:04:53.152Z,36.43
2022-08-29T20:07:54.685Z,37.57
2022-08-29T20:10:56.141Z,38.18
2022-08-29T20:13:58.346Z,39.32
2022-08-29T20:17:01.135Z,40.20
2022-08-29T20:20:05.765Z,39.52
2022-08-29T20:23:07.686Z,40.63
2022-08-29T20:26:09.121Z,42.13
2022-08-29T20:29:12.254Z,42.31
2022-08-29T20:32:13.791Z,41.15
2022-08-29T20:35:35.233Z,41.47
2022-08-29T20:38:36.780Z,42.53
2022-08-29T20:41:38.394Z,41.98
2022-08-29T20:44:43.355Z,42.47
2022-08-29T20:50:46.182Z,42.54
2022-08-29T20:53:47.691Z,42.10
2022-08-29T20:56:49.709Z,42.32
2022-08-29T20:59:51.117Z,42.16
2022-08-29T21:03:11.112Z,42.21
2022-08-29T21:06:12.592Z,43.95
2022-08-29T21:09:14.072Z,43.25
2022-08-29T21:12:16.518Z,42.94
2022-08-29T21:15:17.946Z,43.47
2022-08-29T21:18:20.284Z,44.52
2022-08-29T21:21:24.962Z,44.39
2022-08-29T21:24:27.447Z,45.31
2022-08-29T21:27:30.586Z,45.95
2022-08-29T21:30:32.076Z,45.39
2022-08-29T21:33:37.098Z,44.81
2022-08-29T21:36:39.276Z,44.78
2022-08-29T21:39:40.990Z,45.80
2022-08-29T21:42:42.904Z,45.68
2022-08-29T21:45:44.319Z,47.37
2022-08-29T21:48:46.132Z,46.77
2022-08-29T21:51:48.075Z,48.07
2022-08-29T21:54:49.922Z,48.34
2022-08-29T21:57:57.490Z,48.77
2022-08-29T22:00:58.920Z,48.51
2022-08-29T22:04:01.989Z,49.88
2022-08-29T22:07:03.491Z,49.71
2022-08-29T22:10:06.918Z,49.78
2022-08-29T22:13:08.673Z,50.09
2022-08-29T22:16:29.520Z,49.50
2022-08-29T22:19:31.632Z,50.56
2022-08-29T22:22:33.093Z,50.24
2022-08-29T22:25:34.770Z,47.82
2022-08-29T22:28:36.245Z,46.61
2022-08-29T22:31:37.714Z,45.58
2022-08-29T22:34:39.294Z,46.28
2022-08-29T22:37:41.308Z,46.97
2022-08-29T22:40:44.514Z,45.06
2022-08-29T22:43:46.086Z,43.17
2022-08-29T22:46:47.655Z,41.08
2022-08-29T22:49:49.080Z,40.26
2022-08-29T22:52:52.130Z,39.94
2022-08-29T22:55:53.607Z,40.28
2022-08-29T22:58:55.034Z,40.38
2022-08-29T23:01:56.882Z,40.39
2022-08-29T23:04:59.436Z,40.64
2022-08-29T23:08:00.892Z,41.37
2022-08-29T23:11:02.331Z,41.21
2022-08-29T23:14:04.254Z,41.56
2022-08-29T23:17:07.601Z,42.44
2022-08-29T23:20:11.726Z,43.90
2022-08-29T23:23:13.214Z,45.82
2022-08-29T23:26:14.616Z,46.50
2022-08-29T23:29:16.064Z,47.35
2022-08-29T23:32:17.921Z,48.48
2022-08-29T23:35:19.392Z,49.66
2022-08-29T23:38:22.281Z,50.26
2022-08-29T23:41:24.237Z,50.08
2022-08-29T23:44:25.705Z,50.46
2022-08-29T23:47:27.165Z,51.00
2022-08-29T23:50:28.593Z,51.03
2022-08-29T23:53:30.301Z,50.92
2022-08-29T23:56:32.059Z,52.01
2022-08-29T23:59:52.069Z,52.02
